Capewater — PBPQ — position and weather

sailwx.info

Track history (hours):
 
Tides and Currents Weather Stations Pressure Air Temp Water Temp Dewpoint Dewpoint Depression Visibility Wind Speed Wind Dir Waves Ship Positions

Capewater

Last reported at 2015-May-26 15:32 UTC. Time now 2015-May-26 15:55 UTC.
Position N 51°16' E 004°22'.

Length 100 m; draft 6.2 m.

Type: Tanker. MMSI: 246346000.

Date/timePositionNaut miles runAvg speedWind from/ knotsBaromVisibWave heightAir tempDewpointWater temp
2015-May-26 15:32N 51°16' E 004°22'0 0.0
2015-May-26 14:32N 51°16' E 004°22'0 0.0
2015-May-26 13:32N 51°16' E 004°22'0 0.0
2015-May-26 12:32N 51°16' E 004°22'0 0.0
2015-May-26 11:32N 51°16' E 004°22'0 0.0
2015-May-26 10:32N 51°16' E 004°22'0 0.0
2015-May-26 09:32N 51°16' E 004°22'0 0.0
2015-May-26 08:32N 51°16' E 004°22'0 0.0
2015-May-26 07:30N 51°16' E 004°22'4 3.9
2015-May-26 06:33N 51°19' E 004°19'0 0.5
2015-May-26 05:32N 51°19' E 004°18'0 0.0
2015-May-26 04:26N 51°19' E 004°18'0 0.0
2015-May-26 03:29N 51°19' E 004°18'0 0.0
2015-May-26 02:23N 51°19' E 004°18'0 0.0
2015-May-26 01:29N 51°19' E 004°18'0 0.0
2015-May-26 00:29N 51°19' E 004°18'0 0.0
2015-May-25 23:29N 51°19' E 004°18'0 0.0
2015-May-25 22:30N 51°19' E 004°18'0 0.0
2015-May-25 21:29N 51°19' E 004°18'0 0.0
2015-May-25 20:23N 51°19' E 004°18'0 0.0
2015-May-25 19:29N 51°19' E 004°18'0 0.0
2015-May-25 18:29N 51°19' E 004°18'0 0.0
2015-May-25 17:32N 51°19' E 004°18'0 0.0
2015-May-25 16:29N 51°19' E 004°18'0 0.0
2015-May-25 15:29N 51°19' E 004°18'0 0.0
2015-May-25 14:29N 51°19' E 004°18'0 0.0
2015-May-25 13:29N 51°19' E 004°18'0 0.0
2015-May-25 12:32N 51°19' E 004°18'0 0.0
2015-May-25 11:29N 51°19' E 004°18'0 0.0
2015-May-25 10:29N 51°19' E 004°18'1 1.1
2015-May-25 09:33N 51°20' E 004°18'1 1.0
2015-May-25 08:33N 51°21' E 004°17'2 2.3
2015-May-25 07:33N 51°21' E 004°14'8 7.6
2015-May-25 06:33N 51°24' E 004°02'10 9.7
2015-May-25 05:33N 51°21' E 003°47'1110.8
2015-May-25 04:33N 51°25' E 003°31'1211.8
2015-May-25 03:33N 51°24' E 003°12'1111.2
2015-May-25 02:33N 51°22' E 002°54'1010.4
2015-May-25 01:33N 51°21' E 002°38'3 1.9
2015-May-25 00:09N 51°20' E 002°34'0 0.0
2015-May-24 23:29N 51°20' E 002°34'0 0.0
2015-May-24 22:33N 51°20' E 002°34'0 0.1
2015-May-24 21:33N 51°20' E 002°34'0 0.0
2015-May-24 20:30N 51°20' E 002°34'0 0.0
2015-May-24 19:32N 51°20' E 002°34'0 0.0
2015-May-24 18:33N 51°20' E 002°34'0 0.0
2015-May-24 17:32N 51°20' E 002°34'0 0.0
2015-May-24 16:33N 51°20' E 002°34'0 0.0
2015-May-24 15:32N 51°20' E 002°34'0 0.1
2015-May-24 14:32N 51°20' E 002°34'0 0.0
2015-May-24 13:33N 51°20' E 002°34'0 0.0
2015-May-24 12:32N 51°20' E 002°34'0 0.0
2015-May-24 11:32N 51°20' E 002°34'0 0.0
2015-May-24 10:32N 51°20' E 002°34'0 0.0
2015-May-24 09:32N 51°20' E 002°34'0 0.0
2015-May-24 08:32N 51°20' E 002°34'0 0.1
2015-May-24 07:32N 51°20' E 002°34'0 0.0
2015-May-24 06:29N 51°20' E 002°34'0 0.0
2015-May-24 05:32N 51°20' E 002°34'0 0.0
2015-May-24 04:32N 51°20' E 002°34'0 0.0
2015-May-24 03:32N 51°20' E 002°34'0 0.1
2015-May-24 02:32N 51°20' E 002°34'0 0.1
2015-May-24 01:32N 51°20' E 002°34'0 0.0
2015-May-24 00:32N 51°20' E 002°34'0 0.0
2015-May-23 23:32N 51°20' E 002°34'7 7.5
2015-May-23 22:33N 51°19' E 002°22'1211.6
2015-May-23 21:33N 51°13' E 002°07'1211.8
2015-May-23 20:33N 51°08' E 001°50'1211.9
2015-May-23 19:33N 50°60' E 001°36'1312.4
2015-May-23 18:30N 50°49' E 001°26'1612.3
2015-May-23 17:10N 50°36' E 001°10'6113.1
2015-May-23 12:33N 49°52' E 000°05'1414.4
2015-May-23 11:34N 49°39' W 000°06'1211.8
2015-May-23 10:34N 49°29' E 000°04'4 4.1
2015-May-23 09:34N 49°29' E 000°10'2 1.6
2015-May-23 08:31N 49°28' E 000°13'0 0.0
2015-May-23 07:31N 49°28' E 000°13'0 0.0
2015-May-23 06:31N 49°28' E 000°13'0 0.0
2015-May-23 05:31N 49°28' E 000°13'0 0.0
2015-May-23 04:28N 49°28' E 000°13'0 0.0
2015-May-23 03:31N 49°28' E 000°13'0 0.0
2015-May-23 02:28N 49°28' E 000°13'0 0.0
2015-May-23 01:31N 49°28' E 000°13'0 0.0
2015-May-23 00:31N 49°28' E 000°13'0 0.0
2015-May-22 23:31N 49°28' E 000°13'0 0.0
2015-May-22 22:31N 49°28' E 000°13'0 0.0
2015-May-22 21:31N 49°28' E 000°13'0 0.0
2015-May-22 20:31N 49°28' E 000°13'0 0.0
2015-May-22 19:31N 49°28' E 000°13'0 0.0
2015-May-22 18:31N 49°28' E 000°13'0 0.0
2015-May-22 17:31N 49°28' E 000°13'0 0.0
2015-May-22 16:31N 49°28' E 000°13'0 0.0
2015-May-22 15:31N 49°28' E 000°13'2 1.8
2015-May-22 14:33N 49°29' E 000°10'2 2.1
2015-May-22 13:33N 49°29' E 000°07'7 7.2
2015-May-22 12:33N 49°29' W 000°04'9 8.5
2015-May-22 11:33N 49°26' E 000°08'1110.9
2015-May-22 10:33N 49°27' E 000°25'5 4.7
2015-May-22 09:30N 49°28' E 000°32'0 0.0
2015-May-22 08:33N 49°28' E 000°32'0 0.0
2015-May-22 07:30N 49°28' E 000°32'0 0.0
2015-May-22 06:33N 49°28' E 000°32'0 0.0
2015-May-22 05:24N 49°28' E 000°32'0 0.0
2015-May-22 04:30N 49°28' E 000°32'0 0.0
2015-May-22 03:30N 49°28' E 000°32'0 0.0
2015-May-22 02:18N 49°28' E 000°32'0 0.0
2015-May-22 01:33N 49°28' E 000°32'0 0.0
2015-May-22 00:30N 49°28' E 000°32'0 0.0
2015-May-21 23:33N 49°28' E 000°32'0 0.0
2015-May-21 22:33N 49°28' E 000°32'0 0.0
2015-May-21 21:33N 49°28' E 000°32'0 0.0
2015-May-21 20:30N 49°28' E 000°32'0 0.0
2015-May-21 19:33N 49°28' E 000°32'0 0.0
2015-May-21 18:33N 49°28' E 000°32'0 0.0
2015-May-21 17:33N 49°28' E 000°32'0 0.0
2015-May-21 16:33N 49°28' E 000°32'0 0.0
2015-May-21 15:33N 49°28' E 000°32'0 0.0
2015-May-21 14:33N 49°28' E 000°32'0 0.0
2015-May-21 13:33N 49°28' E 000°32'0 0.0
2015-May-21 12:33N 49°28' E 000°32'5 4.9
2015-May-21 11:33N 49°27' E 000°25'1312.7
2015-May-21 10:34N 49°26' E 000°06'8 7.8
2015-May-21 09:33N 49°29' W 000°06'0 0.1
2015-May-21 08:33N 49°29' W 000°06'0 0.1
2015-May-21 07:33N 49°29' W 000°06'0 0.0
2015-May-21 06:33N 49°29' W 000°06'0 0.0
2015-May-21 05:33N 49°29' W 000°06'0 0.0
2015-May-21 04:33N 49°29' W 000°06'4 3.6
2015-May-21 03:33N 49°30' W 000°11'10 9.7
2015-May-21 02:33N 49°36' W 000°23'1010.2
2015-May-21 01:33N 49°42' W 000°35'1010.3
2015-May-21 00:33N 49°50' W 000°47'10 9.5
2015-May-20 23:32N 49°59' W 000°51'3010.0
2015-May-20 20:33N 50°28' W 000°57'10 9.6
2015-May-20 19:33N 50°38' W 000°58'9 8.7
2015-May-20 18:33N 50°45' W 001°06'1010.1
2015-May-20 17:33N 50°50' W 001°20'0 0.0
2015-May-19 23:25N 50°50' W 001°20'0 0.0
2015-May-18 23:22N 50°50' W 001°20'0 0.0
2015-May-17 21:11N 50°50' W 001°20'2 3.1
2015-May-17 20:34N 50°49' W 001°18'8 7.8
2015-May-17 19:33N 50°45' W 001°07'3 3.2
2015-May-17 18:34N 50°43' W 001°03'0 0.0
2015-May-17 17:31N 50°43' W 001°03'0 0.0
2015-May-17 16:30N 50°43' W 001°03'0 0.0
2015-May-17 15:31N 50°43' W 001°03'0 0.0
2015-May-17 14:34N 50°43' W 001°03'0 0.0
2015-May-17 13:34N 50°43' W 001°03'0 0.1
2015-May-17 12:33N 50°43' W 001°03'0 0.0
2015-May-17 11:34N 50°43' W 001°03'0 0.0
2015-May-17 10:34N 50°43' W 001°03'0 0.1
2015-May-17 09:33N 50°43' W 001°03'0 0.1
2015-May-17 08:34N 50°43' W 001°03'0 0.0
2015-May-17 07:33N 50°43' W 001°03'0 0.0
2015-May-17 06:33N 50°43' W 001°03'0 0.0
2015-May-17 05:33N 50°43' W 001°03'0 0.0
2015-May-17 04:30N 50°43' W 001°03'0 0.0
2015-May-17 03:33N 50°43' W 001°03'0 0.0
2015-May-17 02:33N 50°43' W 001°03'0 0.0
2015-May-17 01:33N 50°43' W 001°03'0 0.0
2015-May-17 00:33N 50°43' W 001°03'0 0.1
2015-May-16 23:34N 50°43' W 001°03'0 0.1
2015-May-16 22:33N 50°43' W 001°03'0 0.0
2015-May-16 21:33N 50°43' W 001°03'0 0.0
2015-May-16 20:33N 50°43' W 001°03'0 0.0
2015-May-16 19:33N 50°43' W 001°03'0 0.0
2015-May-16 18:33N 50°43' W 001°03'0 0.0
2015-May-16 17:34N 50°43' W 001°03'0 0.0
2015-May-16 16:33N 50°43' W 001°03'0 0.0
2015-May-16 15:33N 50°43' W 001°03'  
Track history (hours):
 
Tides and Currents Weather Stations Pressure Air Temp Water Temp Dewpoint Dewpoint Depression Visibility Wind Speed Wind Dir Waves Ship Positions

Capewater

Last reported at 2015-May-26 15:32 UTC. Time now 2015-May-26 15:55 UTC.
Position N 51°16' E 004°22'.

Length 100 m; draft 6.2 m.

Type: Tanker. MMSI: 246346000.

Date/timePositionNaut miles runAvg speedWind from/ knotsBaromVisibWave heightAir tempDewpointWater temp
2015-May-26 15:32N 51°16' E 004°22'0 0.0
2015-May-26 14:32N 51°16' E 004°22'0 0.0
2015-May-26 13:32N 51°16' E 004°22'0 0.0
2015-May-26 12:32N 51°16' E 004°22'0 0.0
2015-May-26 11:32N 51°16' E 004°22'0 0.0
2015-May-26 10:32N 51°16' E 004°22'0 0.0
2015-May-26 09:32N 51°16' E 004°22'0 0.0
2015-May-26 08:32N 51°16' E 004°22'0 0.0
2015-May-26 07:30N 51°16' E 004°22'4 3.9
2015-May-26 06:33N 51°19' E 004°19'0 0.5
2015-May-26 05:32N 51°19' E 004°18'0 0.0
2015-May-26 04:26N 51°19' E 004°18'0 0.0
2015-May-26 03:29N 51°19' E 004°18'0 0.0
2015-May-26 02:23N 51°19' E 004°18'0 0.0
2015-May-26 01:29N 51°19' E 004°18'0 0.0
2015-May-26 00:29N 51°19' E 004°18'0 0.0
2015-May-25 23:29N 51°19' E 004°18'0 0.0
2015-May-25 22:30N 51°19' E 004°18'0 0.0
2015-May-25 21:29N 51°19' E 004°18'0 0.0
2015-May-25 20:23N 51°19' E 004°18'0 0.0
2015-May-25 19:29N 51°19' E 004°18'0 0.0
2015-May-25 18:29N 51°19' E 004°18'0 0.0
2015-May-25 17:32N 51°19' E 004°18'0 0.0
2015-May-25 16:29N 51°19' E 004°18'0 0.0
2015-May-25 15:29N 51°19' E 004°18'0 0.0
2015-May-25 14:29N 51°19' E 004°18'0 0.0
2015-May-25 13:29N 51°19' E 004°18'0 0.0
2015-May-25 12:32N 51°19' E 004°18'0 0.0
2015-May-25 11:29N 51°19' E 004°18'0 0.0
2015-May-25 10:29N 51°19' E 004°18'1 1.1
2015-May-25 09:33N 51°20' E 004°18'1 1.0
2015-May-25 08:33N 51°21' E 004°17'2 2.3
2015-May-25 07:33N 51°21' E 004°14'8 7.6
2015-May-25 06:33N 51°24' E 004°02'10 9.7
2015-May-25 05:33N 51°21' E 003°47'1110.8
2015-May-25 04:33N 51°25' E 003°31'1211.8
2015-May-25 03:33N 51°24' E 003°12'1111.2
2015-May-25 02:33N 51°22' E 002°54'1010.4
2015-May-25 01:33N 51°21' E 002°38'3 1.9
2015-May-25 00:09N 51°20' E 002°34'0 0.0
2015-May-24 23:29N 51°20' E 002°34'0 0.0
2015-May-24 22:33N 51°20' E 002°34'0 0.1
2015-May-24 21:33N 51°20' E 002°34'0 0.0
2015-May-24 20:30N 51°20' E 002°34'0 0.0
2015-May-24 19:32N 51°20' E 002°34'0 0.0
2015-May-24 18:33N 51°20' E 002°34'0 0.0
2015-May-24 17:32N 51°20' E 002°34'0 0.0
2015-May-24 16:33N 51°20' E 002°34'0 0.0
2015-May-24 15:32N 51°20' E 002°34'0 0.1
2015-May-24 14:32N 51°20' E 002°34'0 0.0
2015-May-24 13:33N 51°20' E 002°34'0 0.0
2015-May-24 12:32N 51°20' E 002°34'0 0.0
2015-May-24 11:32N 51°20' E 002°34'0 0.0
2015-May-24 10:32N 51°20' E 002°34'0 0.0
2015-May-24 09:32N 51°20' E 002°34'0 0.0
2015-May-24 08:32N 51°20' E 002°34'0 0.1
2015-May-24 07:32N 51°20' E 002°34'0 0.0
2015-May-24 06:29N 51°20' E 002°34'0 0.0
2015-May-24 05:32N 51°20' E 002°34'0 0.0
2015-May-24 04:32N 51°20' E 002°34'0 0.0
2015-May-24 03:32N 51°20' E 002°34'0 0.1
2015-May-24 02:32N 51°20' E 002°34'0 0.1
2015-May-24 01:32N 51°20' E 002°34'0 0.0
2015-May-24 00:32N 51°20' E 002°34'0 0.0
2015-May-23 23:32N 51°20' E 002°34'7 7.5
2015-May-23 22:33N 51°19' E 002°22'1211.6
2015-May-23 21:33N 51°13' E 002°07'1211.8
2015-May-23 20:33N 51°08' E 001°50'1211.9
2015-May-23 19:33N 50°60' E 001°36'1312.4
2015-May-23 18:30N 50°49' E 001°26'1612.3
2015-May-23 17:10N 50°36' E 001°10'6113.1
2015-May-23 12:33N 49°52' E 000°05'1414.4
2015-May-23 11:34N 49°39' W 000°06'1211.8
2015-May-23 10:34N 49°29' E 000°04'4 4.1
2015-May-23 09:34N 49°29' E 000°10'2 1.6
2015-May-23 08:31N 49°28' E 000°13'0 0.0
2015-May-23 07:31N 49°28' E 000°13'0 0.0
2015-May-23 06:31N 49°28' E 000°13'0 0.0
2015-May-23 05:31N 49°28' E 000°13'0 0.0
2015-May-23 04:28N 49°28' E 000°13'0 0.0
2015-May-23 03:31N 49°28' E 000°13'0 0.0
2015-May-23 02:28N 49°28' E 000°13'0 0.0
2015-May-23 01:31N 49°28' E 000°13'0 0.0
2015-May-23 00:31N 49°28' E 000°13'0 0.0
2015-May-22 23:31N 49°28' E 000°13'0 0.0
2015-May-22 22:31N 49°28' E 000°13'0 0.0
2015-May-22 21:31N 49°28' E 000°13'0 0.0
2015-May-22 20:31N 49°28' E 000°13'0 0.0
2015-May-22 19:31N 49°28' E 000°13'0 0.0
2015-May-22 18:31N 49°28' E 000°13'0 0.0
2015-May-22 17:31N 49°28' E 000°13'0 0.0
2015-May-22 16:31N 49°28' E 000°13'0 0.0
2015-May-22 15:31N 49°28' E 000°13'2 1.8
2015-May-22 14:33N 49°29' E 000°10'2 2.1
2015-May-22 13:33N 49°29' E 000°07'7 7.2
2015-May-22 12:33N 49°29' W 000°04'9 8.5
2015-May-22 11:33N 49°26' E 000°08'1110.9
2015-May-22 10:33N 49°27' E 000°25'5 4.7
2015-May-22 09:30N 49°28' E 000°32'0 0.0
2015-May-22 08:33N 49°28' E 000°32'0 0.0
2015-May-22 07:30N 49°28' E 000°32'0 0.0
2015-May-22 06:33N 49°28' E 000°32'0 0.0
2015-May-22 05:24N 49°28' E 000°32'0 0.0
2015-May-22 04:30N 49°28' E 000°32'0 0.0
2015-May-22 03:30N 49°28' E 000°32'0 0.0
2015-May-22 02:18N 49°28' E 000°32'0 0.0
2015-May-22 01:33N 49°28' E 000°32'0 0.0
2015-May-22 00:30N 49°28' E 000°32'0 0.0
2015-May-21 23:33N 49°28' E 000°32'0 0.0
2015-May-21 22:33N 49°28' E 000°32'0 0.0
2015-May-21 21:33N 49°28' E 000°32'0 0.0
2015-May-21 20:30N 49°28' E 000°32'0 0.0
2015-May-21 19:33N 49°28' E 000°32'0 0.0
2015-May-21 18:33N 49°28' E 000°32'0 0.0
2015-May-21 17:33N 49°28' E 000°32'0 0.0
2015-May-21 16:33N 49°28' E 000°32'0 0.0
2015-May-21 15:33N 49°28' E 000°32'0 0.0
2015-May-21 14:33N 49°28' E 000°32'0 0.0
2015-May-21 13:33N 49°28' E 000°32'0 0.0
2015-May-21 12:33N 49°28' E 000°32'5 4.9
2015-May-21 11:33N 49°27' E 000°25'1312.7
2015-May-21 10:34N 49°26' E 000°06'8 7.8
2015-May-21 09:33N 49°29' W 000°06'0 0.1
2015-May-21 08:33N 49°29' W 000°06'0 0.1
2015-May-21 07:33N 49°29' W 000°06'0 0.0
2015-May-21 06:33N 49°29' W 000°06'0 0.0
2015-May-21 05:33N 49°29' W 000°06'0 0.0
2015-May-21 04:33N 49°29' W 000°06'4 3.6
2015-May-21 03:33N 49°30' W 000°11'10 9.7
2015-May-21 02:33N 49°36' W 000°23'1010.2
2015-May-21 01:33N 49°42' W 000°35'1010.3
2015-May-21 00:33N 49°50' W 000°47'10 9.5
2015-May-20 23:32N 49°59' W 000°51'3010.0
2015-May-20 20:33N 50°28' W 000°57'10 9.6
2015-May-20 19:33N 50°38' W 000°58'9 8.7
2015-May-20 18:33N 50°45' W 001°06'1010.1
2015-May-20 17:33N 50°50' W 001°20'0 0.0
2015-May-19 23:25N 50°50' W 001°20'0 0.0
2015-May-18 23:22N 50°50' W 001°20'0 0.0
2015-May-17 21:11N 50°50' W 001°20'2 3.1
2015-May-17 20:34N 50°49' W 001°18'8 7.8
2015-May-17 19:33N 50°45' W 001°07'3 3.2
2015-May-17 18:34N 50°43' W 001°03'0 0.0
2015-May-17 17:31N 50°43' W 001°03'0 0.0
2015-May-17 16:30N 50°43' W 001°03'0 0.0
2015-May-17 15:31N 50°43' W 001°03'0 0.0
2015-May-17 14:34N 50°43' W 001°03'0 0.0
2015-May-17 13:34N 50°43' W 001°03'0 0.1
2015-May-17 12:33N 50°43' W 001°03'0 0.0
2015-May-17 11:34N 50°43' W 001°03'0 0.0
2015-May-17 10:34N 50°43' W 001°03'0 0.1
2015-May-17 09:33N 50°43' W 001°03'0 0.1
2015-May-17 08:34N 50°43' W 001°03'0 0.0
2015-May-17 07:33N 50°43' W 001°03'0 0.0
2015-May-17 06:33N 50°43' W 001°03'0 0.0
2015-May-17 05:33N 50°43' W 001°03'0 0.0
2015-May-17 04:30N 50°43' W 001°03'0 0.0
2015-May-17 03:33N 50°43' W 001°03'0 0.0
2015-May-17 02:33N 50°43' W 001°03'0 0.0
2015-May-17 01:33N 50°43' W 001°03'0 0.0
2015-May-17 00:33N 50°43' W 001°03'0 0.1
2015-May-16 23:34N 50°43' W 001°03'0 0.1
2015-May-16 22:33N 50°43' W 001°03'0 0.0
2015-May-16 21:33N 50°43' W 001°03'0 0.0
2015-May-16 20:33N 50°43' W 001°03'0 0.0
2015-May-16 19:33N 50°43' W 001°03'0 0.0
2015-May-16 18:33N 50°43' W 001°03'0 0.0
2015-May-16 17:34N 50°43' W 001°03'0 0.0
2015-May-16 16:33N 50°43' W 001°03'0 0.0
2015-May-16 15:33N 50°43' W 001°03'  

Dump ship's entire track history